Terminal Aerodrome Forecast
Issued by NWS

Home | Current Version | Previous Version | Text Only | Print | Product List | Glossary Off
Versions: 1 2 3 4 5 6 7 8 9 10 11 12 13 14 15 16 17 18 19 20 21 22 23 24 25 26 27 28 29 30 31 32 33 34

000
FTUS43 KLOT 131600 AAB
TAFDPA
TAF AMD
KDPA 131605Z 1316/1412 26009KT P6SM SCT060 BKN250
     FM131800 05008KT 6SM BR SCT007 BKN090
     FM131900 06008KT 5SM -SHRA BR BKN007 BKN025
      TEMPO 1320/1323 3SM -TSRA OVC007CB
     FM132300 08010KT 3SM SHRA BR OVC007
      TEMPO 1323/1401 2SM -TSRA OVC009CB
     FM140100 23012G18KT 4SM SHRA VCTS OVC009CB
     FM140700 36018G26KT 4SM RA BR OVC009=

USA.gov is the U.S. government's official web portal to all federal, state and local government web resources and services.